sensor_id;sensor_type;location;lat;lon;timestamp;P1;durP1;ratioP1;P2;durP2;ratioP2
52858;SDS011;38721;53.098;6.596;2023-02-15T00:02:24;72.60;;;44.17;;
52858;SDS011;38721;53.098;6.596;2023-02-15T00:04:50;98.53;;;50.17;;
52858;SDS011;38721;53.098;6.596;2023-02-15T00:07:16;72.43;;;46.22;;
52858;SDS011;38721;53.098;6.596;2023-02-15T00:09:47;68.03;;;43.72;;
52858;SDS011;38721;53.098;6.596;2023-02-15T00:12:13;77.70;;;47.15;;
52858;SDS011;38721;53.098;6.596;2023-02-15T00:14:39;92.10;;;50.33;;
52858;SDS011;38721;53.098;6.596;2023-02-15T00:17:05;72.03;;;46.03;;
52858;SDS011;38721;53.098;6.596;2023-02-15T00:19:30;400.25;;;63.05;;
52858;SDS011;38721;53.098;6.596;2023-02-15T00:21:56;69.78;;;44.20;;
52858;SDS011;38721;53.098;6.596;2023-02-15T00:24:22;78.28;;;47.13;;
52858;SDS011;38721;53.098;6.596;2023-02-15T00:26:48;114.18;;;49.28;;
52858;SDS011;38721;53.098;6.596;2023-02-15T00:29:15;248.35;;;57.35;;
52858;SDS011;38721;53.098;6.596;2023-02-15T00:31:42;260.73;;;58.45;;
52858;SDS011;38721;53.098;6.596;2023-02-15T00:34:15;394.13;;;70.32;;
52858;SDS011;38721;53.098;6.596;2023-02-15T00:36:46;178.23;;;49.63;;
52858;SDS011;38721;53.098;6.596;2023-02-15T00:39:13;339.75;;;60.38;;
52858;SDS011;38721;53.098;6.596;2023-02-15T00:41:39;103.35;;;48.55;;
52858;SDS011;38721;53.098;6.596;2023-02-15T00:44:05;164.90;;;50.38;;
52858;SDS011;38721;53.098;6.596;2023-02-15T00:46:31;190.57;;;50.03;;
52858;SDS011;38721;53.098;6.596;2023-02-15T00:48:58;183.35;;;49.25;;
52858;SDS011;38721;53.098;6.596;2023-02-15T00:51:24;311.35;;;61.30;;
52858;SDS011;38721;53.098;6.596;2023-02-15T00:53:50;316.92;;;62.55;;
52858;SDS011;38721;53.098;6.596;2023-02-15T00:56:15;146.38;;;46.47;;
52858;SDS011;38721;53.098;6.596;2023-02-15T00:58:41;237.82;;;48.38;;
52858;SDS011;38721;53.098;6.596;2023-02-15T01:01:11;130.63;;;44.17;;
52858;SDS011;38721;53.098;6.596;2023-02-15T01:03:39;275.65;;;59.90;;
52858;SDS011;38721;53.098;6.596;2023-02-15T01:06:06;109.63;;;45.28;;
52858;SDS011;38721;53.098;6.596;2023-02-15T01:08:33;150.77;;;47.03;;
52858;SDS011;38721;53.098;6.596;2023-02-15T01:11:03;226.85;;;50.00;;
52858;SDS011;38721;53.098;6.596;2023-02-15T01:13:33;168.75;;;46.65;;
52858;SDS011;38721;53.098;6.596;2023-02-15T01:16:00;264.00;;;58.13;;
52858;SDS011;38721;53.098;6.596;2023-02-15T01:18:27;99.40;;;43.72;;
52858;SDS011;38721;53.098;6.596;2023-02-15T01:20:53;73.43;;;42.75;;
52858;SDS011;38721;53.098;6.596;2023-02-15T01:23:19;94.00;;;43.60;;
52858;SDS011;38721;53.098;6.596;2023-02-15T01:25:45;114.82;;;45.08;;
52858;SDS011;38721;53.098;6.596;2023-02-15T01:28:11;73.72;;;41.58;;
52858;SDS011;38721;53.098;6.596;2023-02-15T01:30:36;95.75;;;42.33;;
52858;SDS011;38721;53.098;6.596;2023-02-15T01:33:02;62.65;;;37.63;;
52858;SDS011;38721;53.098;6.596;2023-02-15T01:35:28;86.45;;;41.97;;
52858;SDS011;38721;53.098;6.596;2023-02-15T01:37:54;72.28;;;41.28;;
52858;SDS011;38721;53.098;6.596;2023-02-15T01:40:20;77.82;;;40.72;;
52858;SDS011;38721;53.098;6.596;2023-02-15T01:42:50;64.32;;;36.97;;
52858;SDS011;38721;53.098;6.596;2023-02-15T01:48:39;72.72;;;39.13;;
52858;SDS011;38721;53.098;6.596;2023-02-15T01:50:44;61.53;;;36.88;;
52858;SDS011;38721;53.098;6.596;2023-02-15T01:53:29;64.15;;;37.97;;
52858;SDS011;38721;53.098;6.596;2023-02-15T01:56:06;58.65;;;36.33;;
52858;SDS011;38721;53.098;6.596;2023-02-15T01:58:44;65.03;;;37.58;;
52858;SDS011;38721;53.098;6.596;2023-02-15T02:01:12;62.75;;;36.92;;
52858;SDS011;38721;53.098;6.596;2023-02-15T02:03:42;62.42;;;36.90;;
52858;SDS011;38721;53.098;6.596;2023-02-15T02:06:11;87.72;;;44.63;;
52858;SDS011;38721;53.098;6.596;2023-02-15T02:08:38;60.60;;;36.80;;
52858;SDS011;38721;53.098;6.596;2023-02-15T02:11:11;69.63;;;38.92;;
52858;SDS011;38721;53.098;6.596;2023-02-15T02:13:39;65.20;;;38.37;;
52858;SDS011;38721;53.098;6.596;2023-02-15T02:16:11;71.60;;;41.30;;
52858;SDS011;38721;53.098;6.596;2023-02-15T02:18:58;58.70;;;36.45;;
52858;SDS011;38721;53.098;6.596;2023-02-15T02:36:36;69.63;;;37.83;;
52858;SDS011;38721;53.098;6.596;2023-02-15T02:47:12;72.70;;;39.72;;
52858;SDS011;38721;53.098;6.596;2023-02-15T02:50:01;75.53;;;40.20;;
52858;SDS011;38721;53.098;6.596;2023-02-15T02:55:21;81.55;;;41.35;;
52858;SDS011;38721;53.098;6.596;2023-02-15T03:00:25;76.55;;;41.60;;
52858;SDS011;38721;53.098;6.596;2023-02-15T03:02:56;86.95;;;42.90;;
52858;SDS011;38721;53.098;6.596;2023-02-15T03:05:31;85.53;;;43.47;;
52858;SDS011;38721;53.098;6.596;2023-02-15T03:07:58;127.53;;;47.30;;
52858;SDS011;38721;53.098;6.596;2023-02-15T03:10:33;86.55;;;43.65;;
52858;SDS011;38721;53.098;6.596;2023-02-15T03:13:01;84.40;;;42.55;;
52858;SDS011;38721;53.098;6.596;2023-02-15T03:15:35;86.03;;;42.75;;
52858;SDS011;38721;53.098;6.596;2023-02-15T03:18:24;89.43;;;41.03;;
52858;SDS011;38721;53.098;6.596;2023-02-15T03:20:53;266.70;;;49.88;;
52858;SDS011;38721;53.098;6.596;2023-02-15T03:23:24;94.97;;;41.08;;
52858;SDS011;38721;53.098;6.596;2023-02-15T03:25:55;207.98;;;50.95;;
52858;SDS011;38721;53.098;6.596;2023-02-15T03:28:24;97.57;;;42.10;;
52858;SDS011;38721;53.098;6.596;2023-02-15T03:30:58;135.75;;;45.60;;
52858;SDS011;38721;53.098;6.596;2023-02-15T03:33:27;116.82;;;46.20;;
52858;SDS011;38721;53.098;6.596;2023-02-15T03:35:56;203.88;;;51.45;;
52858;SDS011;38721;53.098;6.596;2023-02-15T03:38:33;110.47;;;41.83;;
52858;SDS011;38721;53.098;6.596;2023-02-15T03:41:08;139.45;;;45.53;;
52858;SDS011;38721;53.098;6.596;2023-02-15T03:49:04;66.25;;;39.47;;
52858;SDS011;38721;53.098;6.596;2023-02-15T03:51:42;67.40;;;40.63;;
52858;SDS011;38721;53.098;6.596;2023-02-15T03:54:15;94.82;;;45.28;;
52858;SDS011;38721;53.098;6.596;2023-02-15T03:57:09;81.88;;;45.65;;
52858;SDS011;38721;53.098;6.596;2023-02-15T04:00:15;82.60;;;43.53;;
52858;SDS011;38721;53.098;6.596;2023-02-15T04:05:34;96.95;;;44.92;;
52858;SDS011;38721;53.098;6.596;2023-02-15T04:08:00;117.72;;;49.95;;
52858;SDS011;38721;53.098;6.596;2023-02-15T04:10:26;99.07;;;46.88;;
52858;SDS011;38721;53.098;6.596;2023-02-15T04:13:10;92.18;;;45.50;;
52858;SDS011;38721;53.098;6.596;2023-02-15T04:15:35;95.53;;;48.70;;
52858;SDS011;38721;53.098;6.596;2023-02-15T04:18:19;91.90;;;47.50;;
52858;SDS011;38721;53.098;6.596;2023-02-15T04:20:45;101.03;;;50.00;;
52858;SDS011;38721;53.098;6.596;2023-02-15T04:23:30;99.50;;;48.42;;
52858;SDS011;38721;53.098;6.596;2023-02-15T04:26:14;110.93;;;51.72;;
52858;SDS011;38721;53.098;6.596;2023-02-15T04:28:40;105.07;;;51.03;;
52858;SDS011;38721;53.098;6.596;2023-02-15T04:31:12;109.95;;;52.97;;
52858;SDS011;38721;53.098;6.596;2023-02-15T04:33:38;131.05;;;59.95;;
52858;SDS011;38721;53.098;6.596;2023-02-15T04:36:03;123.22;;;54.55;;
52858;SDS011;38721;53.098;6.596;2023-02-15T04:38:29;139.90;;;60.90;;
52858;SDS011;38721;53.098;6.596;2023-02-15T04:40:55;124.65;;;59.30;;
52858;SDS011;38721;53.098;6.596;2023-02-15T04:43:21;127.15;;;56.92;;
52858;SDS011;38721;53.098;6.596;2023-02-15T04:45:48;119.65;;;55.83;;
52858;SDS011;38721;53.098;6.596;2023-02-15T04:48:15;127.03;;;56.70;;
52858;SDS011;38721;53.098;6.596;2023-02-15T04:50:41;178.85;;;62.80;;
52858;SDS011;38721;53.098;6.596;2023-02-15T04:53:07;123.78;;;58.20;;
52858;SDS011;38721;53.098;6.596;2023-02-15T04:55:32;124.85;;;57.40;;
52858;SDS011;38721;53.098;6.596;2023-02-15T04:57:58;132.50;;;58.70;;
52858;SDS011;38721;53.098;6.596;2023-02-15T05:00:24;133.65;;;57.92;;
52858;SDS011;38721;53.098;6.596;2023-02-15T05:02:52;181.68;;;65.35;;
52858;SDS011;38721;53.098;6.596;2023-02-15T05:05:18;143.95;;;60.75;;
52858;SDS011;38721;53.098;6.596;2023-02-15T05:07:44;153.80;;;63.85;;
52858;SDS011;38721;53.098;6.596;2023-02-15T05:10:10;220.65;;;67.55;;
52858;SDS011;38721;53.098;6.596;2023-02-15T05:12:35;177.05;;;64.03;;
52858;SDS011;38721;53.098;6.596;2023-02-15T05:15:01;287.83;;;70.78;;
52858;SDS011;38721;53.098;6.596;2023-02-15T05:17:27;757.25;;;123.38;;
52858;SDS011;38721;53.098;6.596;2023-02-15T05:19:56;637.67;;;102.65;;
52858;SDS011;38721;53.098;6.596;2023-02-15T05:22:21;300.23;;;75.18;;
52858;SDS011;38721;53.098;6.596;2023-02-15T05:24:47;559.35;;;87.15;;
52858;SDS011;38721;53.098;6.596;2023-02-15T05:27:31;264.38;;;71.05;;
52858;SDS011;38721;53.098;6.596;2023-02-15T05:30:15;717.92;;;103.88;;
52858;SDS011;38721;53.098;6.596;2023-02-15T05:32:44;319.70;;;72.40;;
52858;SDS011;38721;53.098;6.596;2023-02-15T05:35:18;445.58;;;79.43;;
52858;SDS011;38721;53.098;6.596;2023-02-15T05:37:48;467.60;;;85.97;;
52858;SDS011;38721;53.098;6.596;2023-02-15T05:40:13;428.92;;;84.25;;
52858;SDS011;38721;53.098;6.596;2023-02-15T05:42:39;199.90;;;67.53;;
52858;SDS011;38721;53.098;6.596;2023-02-15T05:45:05;205.93;;;66.18;;
52858;SDS011;38721;53.098;6.596;2023-02-15T05:47:31;339.25;;;77.68;;
52858;SDS011;38721;53.098;6.596;2023-02-15T05:49:56;334.63;;;78.30;;
52858;SDS011;38721;53.098;6.596;2023-02-15T05:52:25;298.45;;;78.57;;
52858;SDS011;38721;53.098;6.596;2023-02-15T05:54:51;534.15;;;100.82;;
52858;SDS011;38721;53.098;6.596;2023-02-15T05:57:17;215.32;;;70.35;;
52858;SDS011;38721;53.098;6.596;2023-02-15T05:59:42;211.20;;;72.85;;
52858;SDS011;38721;53.098;6.596;2023-02-15T06:02:08;258.33;;;75.80;;
52858;SDS011;38721;53.098;6.596;2023-02-15T06:04:33;302.85;;;79.35;;
52858;SDS011;38721;53.098;6.596;2023-02-15T06:06:59;208.57;;;70.82;;
52858;SDS011;38721;53.098;6.596;2023-02-15T06:09:25;193.07;;;70.55;;
52858;SDS011;38721;53.098;6.596;2023-02-15T06:11:50;279.80;;;77.55;;
52858;SDS011;38721;53.098;6.596;2023-02-15T06:14:18;220.25;;;72.13;;
52858;SDS011;38721;53.098;6.596;2023-02-15T06:16:44;541.38;;;101.30;;
52858;SDS011;38721;53.098;6.596;2023-02-15T06:19:09;188.30;;;68.75;;
52858;SDS011;38721;53.098;6.596;2023-02-15T06:21:35;148.98;;;63.13;;
52858;SDS011;38721;53.098;6.596;2023-02-15T06:24:01;314.73;;;77.22;;
52858;SDS011;38721;53.098;6.596;2023-02-15T06:26:26;266.42;;;68.28;;
52858;SDS011;38721;53.098;6.596;2023-02-15T06:28:52;150.35;;;60.67;;
52858;SDS011;38721;53.098;6.596;2023-02-15T06:31:17;147.65;;;62.25;;
52858;SDS011;38721;53.098;6.596;2023-02-15T06:33:43;186.95;;;67.45;;
52858;SDS011;38721;53.098;6.596;2023-02-15T06:36:09;176.52;;;66.90;;
52858;SDS011;38721;53.098;6.596;2023-02-15T06:38:37;121.07;;;58.25;;
52858;SDS011;38721;53.098;6.596;2023-02-15T06:41:03;161.40;;;67.55;;
52858;SDS011;38721;53.098;6.596;2023-02-15T06:43:29;143.80;;;63.13;;
52858;SDS011;38721;53.098;6.596;2023-02-15T06:45:57;135.10;;;59.42;;
52858;SDS011;38721;53.098;6.596;2023-02-15T06:48:23;135.65;;;62.30;;
52858;SDS011;38721;53.098;6.596;2023-02-15T06:50:52;135.07;;;61.33;;
52858;SDS011;38721;53.098;6.596;2023-02-15T06:53:17;164.38;;;67.47;;
52858;SDS011;38721;53.098;6.596;2023-02-15T06:55:43;146.25;;;63.63;;
52858;SDS011;38721;53.098;6.596;2023-02-15T06:58:08;146.57;;;63.45;;
52858;SDS011;38721;53.098;6.596;2023-02-15T07:00:34;160.23;;;62.50;;
52858;SDS011;38721;53.098;6.596;2023-02-15T07:03:00;130.77;;;60.90;;
52858;SDS011;38721;53.098;6.596;2023-02-15T07:05:27;157.48;;;66.88;;
52858;SDS011;38721;53.098;6.596;2023-02-15T07:07:56;133.20;;;62.22;;
52858;SDS011;38721;53.098;6.596;2023-02-15T07:10:25;128.85;;;61.30;;
52858;SDS011;38721;53.098;6.596;2023-02-15T07:12:52;144.98;;;60.60;;
52858;SDS011;38721;53.098;6.596;2023-02-15T07:15:18;131.48;;;60.25;;
52858;SDS011;38721;53.098;6.596;2023-02-15T07:17:47;139.35;;;62.10;;
52858;SDS011;38721;53.098;6.596;2023-02-15T07:20:18;128.05;;;58.55;;
52858;SDS011;38721;53.098;6.596;2023-02-15T07:22:45;135.80;;;59.35;;
52858;SDS011;38721;53.098;6.596;2023-02-15T07:25:11;138.02;;;59.38;;
52858;SDS011;38721;53.098;6.596;2023-02-15T07:27:38;144.63;;;61.28;;
52858;SDS011;38721;53.098;6.596;2023-02-15T07:30:04;120.00;;;59.88;;
52858;SDS011;38721;53.098;6.596;2023-02-15T07:32:32;153.50;;;61.47;;
52858;SDS011;38721;53.098;6.596;2023-02-15T07:34:58;126.28;;;56.50;;
52858;SDS011;38721;53.098;6.596;2023-02-15T07:37:25;131.52;;;57.15;;
52858;SDS011;38721;53.098;6.596;2023-02-15T07:39:51;121.68;;;56.38;;
52858;SDS011;38721;53.098;6.596;2023-02-15T07:42:22;133.68;;;59.35;;
52858;SDS011;38721;53.098;6.596;2023-02-15T07:44:51;126.50;;;58.95;;
52858;SDS011;38721;53.098;6.596;2023-02-15T07:47:17;140.88;;;62.53;;
52858;SDS011;38721;53.098;6.596;2023-02-15T07:49:45;124.30;;;55.17;;
52858;SDS011;38721;53.098;6.596;2023-02-15T07:52:11;128.93;;;57.38;;
52858;SDS011;38721;53.098;6.596;2023-02-15T07:54:36;127.90;;;58.92;;
52858;SDS011;38721;53.098;6.596;2023-02-15T07:57:02;129.40;;;57.58;;
52858;SDS011;38721;53.098;6.596;2023-02-15T07:59:28;132.43;;;59.17;;
52858;SDS011;38721;53.098;6.596;2023-02-15T08:01:54;135.38;;;60.83;;
52858;SDS011;38721;53.098;6.596;2023-02-15T08:04:21;132.82;;;56.72;;
52858;SDS011;38721;53.098;6.596;2023-02-15T08:06:46;113.70;;;54.95;;
52858;SDS011;38721;53.098;6.596;2023-02-15T08:09:12;137.07;;;58.63;;
52858;SDS011;38721;53.098;6.596;2023-02-15T08:11:41;125.38;;;56.85;;
52858;SDS011;38721;53.098;6.596;2023-02-15T08:16:52;112.57;;;55.72;;
52858;SDS011;38721;53.098;6.596;2023-02-15T08:19:23;108.35;;;53.67;;
52858;SDS011;38721;53.098;6.596;2023-02-15T08:21:55;121.68;;;55.47;;
52858;SDS011;38721;53.098;6.596;2023-02-15T08:26:52;116.50;;;53.13;;
52858;SDS011;38721;53.098;6.596;2023-02-15T08:29:22;113.90;;;53.08;;
52858;SDS011;38721;53.098;6.596;2023-02-15T08:31:50;107.78;;;52.03;;
52858;SDS011;38721;53.098;6.596;2023-02-15T08:34:19;107.47;;;54.17;;
52858;SDS011;38721;53.098;6.596;2023-02-15T08:36:46;102.57;;;49.97;;
52858;SDS011;38721;53.098;6.596;2023-02-15T08:39:12;96.32;;;49.95;;
52858;SDS011;38721;53.098;6.596;2023-02-15T08:41:39;96.95;;;49.78;;
52858;SDS011;38721;53.098;6.596;2023-02-15T08:44:08;108.57;;;53.38;;
52858;SDS011;38721;53.098;6.596;2023-02-15T08:46:41;90.72;;;49.17;;
52858;SDS011;38721;53.098;6.596;2023-02-15T08:49:08;100.03;;;50.78;;
52858;SDS011;38721;53.098;6.596;2023-02-15T08:51:35;92.53;;;51.10;;
52858;SDS011;38721;53.098;6.596;2023-02-15T08:54:06;98.80;;;50.28;;
52858;SDS011;38721;53.098;6.596;2023-02-15T08:56:36;92.32;;;48.10;;
52858;SDS011;38721;53.098;6.596;2023-02-15T08:59:03;96.03;;;48.88;;
52858;SDS011;38721;53.098;6.596;2023-02-15T09:01:30;87.72;;;49.38;;
52858;SDS011;38721;53.098;6.596;2023-02-15T09:04:01;89.18;;;47.80;;
52858;SDS011;38721;53.098;6.596;2023-02-15T09:06:34;82.47;;;46.80;;
52858;SDS011;38721;53.098;6.596;2023-02-15T09:09:00;87.60;;;48.92;;
52858;SDS011;38721;53.098;6.596;2023-02-15T09:11:28;84.55;;;48.50;;
52858;SDS011;38721;53.098;6.596;2023-02-15T09:13:56;81.07;;;45.92;;
52858;SDS011;38721;53.098;6.596;2023-02-15T09:16:25;86.53;;;45.40;;
52858;SDS011;38721;53.098;6.596;2023-02-15T09:18:52;78.63;;;42.90;;
52858;SDS011;38721;53.098;6.596;2023-02-15T09:21:22;77.20;;;43.92;;
52858;SDS011;38721;53.098;6.596;2023-02-15T09:23:55;74.63;;;45.08;;
52858;SDS011;38721;53.098;6.596;2023-02-15T09:26:23;79.70;;;45.05;;
52858;SDS011;38721;53.098;6.596;2023-02-15T09:28:53;81.15;;;45.30;;
52858;SDS011;38721;53.098;6.596;2023-02-15T09:31:21;83.80;;;46.33;;
52858;SDS011;38721;53.098;6.596;2023-02-15T09:33:49;86.55;;;44.90;;
52858;SDS011;38721;53.098;6.596;2023-02-15T09:36:16;77.88;;;45.08;;
52858;SDS011;38721;53.098;6.596;2023-02-15T09:38:47;75.80;;;43.50;;
52858;SDS011;38721;53.098;6.596;2023-02-15T09:41:25;73.63;;;42.85;;
52858;SDS011;38721;53.098;6.596;2023-02-15T09:44:07;76.72;;;44.35;;
52858;SDS011;38721;53.098;6.596;2023-02-15T09:50:05;71.25;;;41.80;;
52858;SDS011;38721;53.098;6.596;2023-02-15T10:21:37;55.55;;;36.63;;
52858;SDS011;38721;53.098;6.596;2023-02-15T10:23:51;53.70;;;35.72;;
52858;SDS011;38721;53.098;6.596;2023-02-15T10:26:43;54.88;;;36.40;;
52858;SDS011;38721;53.098;6.596;2023-02-15T10:29:24;54.65;;;35.92;;
52858;SDS011;38721;53.098;6.596;2023-02-15T10:32:07;54.22;;;35.30;;
52858;SDS011;38721;53.098;6.596;2023-02-15T10:34:54;52.28;;;34.75;;
52858;SDS011;38721;53.098;6.596;2023-02-15T10:51:30;50.67;;;35.30;;
52858;SDS011;38721;53.098;6.596;2023-02-15T11:08:14;53.78;;;34.28;;
52858;SDS011;38721;53.098;6.596;2023-02-15T11:10:42;50.70;;;34.05;;
52858;SDS011;38721;53.098;6.596;2023-02-15T11:13:19;50.72;;;33.33;;
52858;SDS011;38721;53.098;6.596;2023-02-15T11:15:58;52.35;;;33.75;;
52858;SDS011;38721;53.098;6.596;2023-02-15T11:23:47;47.03;;;32.35;;
52858;SDS011;38721;53.098;6.596;2023-02-15T11:26:15;52.70;;;32.15;;
52858;SDS011;38721;53.098;6.596;2023-02-15T11:28:47;45.92;;;31.75;;
52858;SDS011;38721;53.098;6.596;2023-02-15T11:31:19;47.97;;;32.65;;
52858;SDS011;38721;53.098;6.596;2023-02-15T11:33:52;49.20;;;33.10;;
52858;SDS011;38721;53.098;6.596;2023-02-15T11:36:26;47.33;;;32.08;;
52858;SDS011;38721;53.098;6.596;2023-02-15T11:38:58;42.97;;;30.23;;
52858;SDS011;38721;53.098;6.596;2023-02-15T11:41:31;47.03;;;30.83;;
52858;SDS011;38721;53.098;6.596;2023-02-15T11:46:36;45.00;;;29.73;;
52858;SDS011;38721;53.098;6.596;2023-02-15T11:49:02;42.78;;;29.88;;
52858;SDS011;38721;53.098;6.596;2023-02-15T11:51:50;49.05;;;31.33;;
52858;SDS011;38721;53.098;6.596;2023-02-15T11:54:22;47.05;;;30.15;;
52858;SDS011;38721;53.098;6.596;2023-02-15T11:56:54;46.60;;;28.88;;
52858;SDS011;38721;53.098;6.596;2023-02-15T11:59:27;46.55;;;29.30;;
52858;SDS011;38721;53.098;6.596;2023-02-15T12:01:57;46.47;;;29.38;;
52858;SDS011;38721;53.098;6.596;2023-02-15T12:04:29;44.50;;;27.88;;
52858;SDS011;38721;53.098;6.596;2023-02-15T12:12:35;50.85;;;30.75;;
52858;SDS011;38721;53.098;6.596;2023-02-15T12:15:02;48.97;;;29.83;;
52858;SDS011;38721;53.098;6.596;2023-02-15T12:17:33;46.78;;;30.30;;
52858;SDS011;38721;53.098;6.596;2023-02-15T12:20:00;50.47;;;31.45;;
52858;SDS011;38721;53.098;6.596;2023-02-15T12:22:33;43.83;;;30.75;;
52858;SDS011;38721;53.098;6.596;2023-02-15T12:25:20;46.45;;;31.65;;
52858;SDS011;38721;53.098;6.596;2023-02-15T12:28:03;47.58;;;31.95;;
52858;SDS011;38721;53.098;6.596;2023-02-15T12:30:41;49.10;;;32.75;;
52858;SDS011;38721;53.098;6.596;2023-02-15T12:36:04;52.08;;;33.50;;
52858;SDS011;38721;53.098;6.596;2023-02-15T12:38:42;52.30;;;34.50;;
52858;SDS011;38721;53.098;6.596;2023-02-15T12:41:24;48.40;;;33.78;;
52858;SDS011;38721;53.098;6.596;2023-02-15T12:49:33;51.75;;;34.85;;
52858;SDS011;38721;53.098;6.596;2023-02-15T12:52:01;53.25;;;33.97;;
52858;SDS011;38721;53.098;6.596;2023-02-15T12:54:33;50.67;;;33.72;;
52858;SDS011;38721;53.098;6.596;2023-02-15T12:57:18;48.13;;;33.80;;
52858;SDS011;38721;53.098;6.596;2023-02-15T13:00:05;49.85;;;33.00;;
52858;SDS011;38721;53.098;6.596;2023-02-15T13:02:55;52.97;;;33.73;;
52858;SDS011;38721;53.098;6.596;2023-02-15T13:05:26;46.70;;;32.67;;
52858;SDS011;38721;53.098;6.596;2023-02-15T13:08:10;49.95;;;32.55;;
52858;SDS011;38721;53.098;6.596;2023-02-15T13:10:41;45.35;;;31.45;;
52858;SDS011;38721;53.098;6.596;2023-02-15T13:13:26;47.33;;;33.55;;
52858;SDS011;38721;53.098;6.596;2023-02-15T13:16:09;52.25;;;33.15;;
52858;SDS011;38721;53.098;6.596;2023-02-15T13:18:38;51.03;;;32.50;;
52858;SDS011;38721;53.098;6.596;2023-02-15T13:21:18;48.92;;;32.00;;
52858;SDS011;38721;53.098;6.596;2023-02-15T13:23:46;47.47;;;31.80;;
52858;SDS011;38721;53.098;6.596;2023-02-15T13:26:16;49.22;;;31.85;;
52858;SDS011;38721;53.098;6.596;2023-02-15T13:28:46;48.63;;;32.22;;
52858;SDS011;38721;53.098;6.596;2023-02-15T13:31:15;44.28;;;30.63;;
52858;SDS011;38721;53.098;6.596;2023-02-15T13:34:03;44.45;;;30.25;;
52858;SDS011;38721;53.098;6.596;2023-02-15T13:37:01;47.85;;;31.10;;
52858;SDS011;38721;53.098;6.596;2023-02-15T13:47:21;45.38;;;29.42;;
52858;SDS011;38721;53.098;6.596;2023-02-15T13:49:58;43.10;;;29.77;;
52858;SDS011;38721;53.098;6.596;2023-02-15T13:52:27;42.58;;;29.05;;
52858;SDS011;38721;53.098;6.596;2023-02-15T14:00:08;42.67;;;27.65;;
52858;SDS011;38721;53.098;6.596;2023-02-15T14:05:47;42.25;;;28.02;;
52858;SDS011;38721;53.098;6.596;2023-02-15T14:08:26;42.63;;;27.52;;
52858;SDS011;38721;53.098;6.596;2023-02-15T14:11:17;37.50;;;25.90;;
52858;SDS011;38721;53.098;6.596;2023-02-15T14:14:00;41.45;;;26.88;;
52858;SDS011;38721;53.098;6.596;2023-02-15T14:16:52;41.13;;;27.98;;
52858;SDS011;38721;53.098;6.596;2023-02-15T14:19:28;40.85;;;26.85;;
52858;SDS011;38721;53.098;6.596;2023-02-15T14:30:56;42.92;;;29.83;;
52858;SDS011;38721;53.098;6.596;2023-02-15T14:36:16;43.58;;;29.52;;
52858;SDS011;38721;53.098;6.596;2023-02-15T14:39:02;41.17;;;28.08;;
52858;SDS011;38721;53.098;6.596;2023-02-15T14:42:13;40.92;;;27.55;;
52858;SDS011;38721;53.098;6.596;2023-02-15T14:44:52;47.50;;;28.60;;
52858;SDS011;38721;53.098;6.596;2023-02-15T14:53:18;42.92;;;27.85;;
52858;SDS011;38721;53.098;6.596;2023-02-15T15:01:15;37.25;;;25.98;;
52858;SDS011;38721;53.098;6.596;2023-02-15T15:03:50;40.67;;;26.38;;
52858;SDS011;38721;53.098;6.596;2023-02-15T15:06:35;40.33;;;27.65;;
52858;SDS011;38721;53.098;6.596;2023-02-15T15:11:49;41.53;;;27.05;;
52858;SDS011;38721;53.098;6.596;2023-02-15T15:16:57;37.95;;;27.48;;
52858;SDS011;38721;53.098;6.596;2023-02-15T15:22:20;36.22;;;26.17;;
52858;SDS011;38721;53.098;6.596;2023-02-15T15:24:57;42.00;;;28.40;;
52858;SDS011;38721;53.098;6.596;2023-02-15T15:38:11;42.78;;;28.45;;
52858;SDS011;38721;53.098;6.596;2023-02-15T15:46:28;38.85;;;26.92;;
52858;SDS011;38721;53.098;6.596;2023-02-15T15:49:17;40.78;;;27.90;;
52858;SDS011;38721;53.098;6.596;2023-02-15T15:51:48;38.00;;;27.35;;
52858;SDS011;38721;53.098;6.596;2023-02-15T15:54:19;45.78;;;29.85;;
52858;SDS011;38721;53.098;6.596;2023-02-15T15:56:48;40.15;;;27.88;;
52858;SDS011;38721;53.098;6.596;2023-02-15T15:59:28;39.63;;;28.13;;
52858;SDS011;38721;53.098;6.596;2023-02-15T16:01:56;43.13;;;29.02;;
52858;SDS011;38721;53.098;6.596;2023-02-15T16:04:33;42.60;;;28.37;;
52858;SDS011;38721;53.098;6.596;2023-02-15T16:09:57;44.50;;;29.45;;
52858;SDS011;38721;53.098;6.596;2023-02-15T16:12:30;40.85;;;28.58;;
52858;SDS011;38721;53.098;6.596;2023-02-15T16:15:20;44.10;;;28.67;;
52858;SDS011;38721;53.098;6.596;2023-02-15T16:17:52;44.88;;;30.33;;
52858;SDS011;38721;53.098;6.596;2023-02-15T16:28:10;42.03;;;28.77;;
52858;SDS011;38721;53.098;6.596;2023-02-15T16:30:37;50.47;;;29.20;;
52858;SDS011;38721;53.098;6.596;2023-02-15T16:33:08;45.90;;;28.40;;
52858;SDS011;38721;53.098;6.596;2023-02-15T16:35:37;42.55;;;27.40;;
52858;SDS011;38721;53.098;6.596;2023-02-15T16:38:05;44.40;;;29.63;;
52858;SDS011;38721;53.098;6.596;2023-02-15T16:40:54;45.33;;;29.02;;
52858;SDS011;38721;53.098;6.596;2023-02-15T16:43:26;43.42;;;28.90;;
52858;SDS011;38721;53.098;6.596;2023-02-15T16:45:58;44.10;;;29.27;;
52858;SDS011;38721;53.098;6.596;2023-02-15T16:48:30;47.83;;;31.27;;
52858;SDS011;38721;53.098;6.596;2023-02-15T16:50:57;53.33;;;30.25;;
52858;SDS011;38721;53.098;6.596;2023-02-15T16:53:27;45.97;;;29.75;;
52858;SDS011;38721;53.098;6.596;2023-02-15T16:55:56;51.60;;;30.13;;
52858;SDS011;38721;53.098;6.596;2023-02-15T16:58:36;47.97;;;31.00;;
52858;SDS011;38721;53.098;6.596;2023-02-15T17:01:02;47.38;;;29.38;;
52858;SDS011;38721;53.098;6.596;2023-02-15T17:03:31;49.92;;;29.77;;
52858;SDS011;38721;53.098;6.596;2023-02-15T17:06:00;45.55;;;29.90;;
52858;SDS011;38721;53.098;6.596;2023-02-15T17:17:13;47.08;;;30.55;;
52858;SDS011;38721;53.098;6.596;2023-02-15T17:22:20;49.83;;;31.20;;
52858;SDS011;38721;53.098;6.596;2023-02-15T17:24:48;48.33;;;29.85;;
52858;SDS011;38721;53.098;6.596;2023-02-15T17:27:23;50.80;;;30.13;;
52858;SDS011;38721;53.098;6.596;2023-02-15T17:29:57;49.30;;;30.83;;
52858;SDS011;38721;53.098;6.596;2023-02-15T17:32:30;45.88;;;29.75;;
52858;SDS011;38721;53.098;6.596;2023-02-15T17:40:39;44.75;;;28.98;;
52858;SDS011;38721;53.098;6.596;2023-02-15T17:43:08;44.15;;;29.38;;
52858;SDS011;38721;53.098;6.596;2023-02-15T17:45:35;44.78;;;29.02;;
52858;SDS011;38721;53.098;6.596;2023-02-15T17:48:04;47.17;;;28.35;;
52858;SDS011;38721;53.098;6.596;2023-02-15T17:50:31;46.03;;;29.20;;
52858;SDS011;38721;53.098;6.596;2023-02-15T17:53:00;48.42;;;29.77;;
52858;SDS011;38721;53.098;6.596;2023-02-15T17:55:26;45.70;;;28.73;;
52858;SDS011;38721;53.098;6.596;2023-02-15T17:58:07;46.85;;;29.83;;
52858;SDS011;38721;53.098;6.596;2023-02-15T18:00:44;46.30;;;28.70;;
52858;SDS011;38721;53.098;6.596;2023-02-15T18:03:48;47.53;;;29.25;;
52858;SDS011;38721;53.098;6.596;2023-02-15T18:06:34;47.58;;;29.02;;
52858;SDS011;38721;53.098;6.596;2023-02-15T18:09:22;45.95;;;28.40;;
52858;SDS011;38721;53.098;6.596;2023-02-15T18:14:49;50.53;;;31.30;;
52858;SDS011;38721;53.098;6.596;2023-02-15T18:17:24;49.30;;;31.02;;
52858;SDS011;38721;53.098;6.596;2023-02-15T18:19:54;46.88;;;31.48;;
52858;SDS011;38721;53.098;6.596;2023-02-15T18:22:20;48.70;;;30.52;;